DAL987 KTUS-KPSP
Flight info
| Callsign | DAL987 |
|---|---|
| Flight time | 0h 56m |
| Altitude | 28000 |
| Route | BURRO5 GBN KOFFA CURIV RDBUL1 |
| Aircraft | B738/M-SDE2E3FGHIRWXY/LB1 |
Departure
| Time | 2026-05-08 14:31 |
|---|---|
| Airport | Tucson International Airport (KTUS) |
Arrival
| Time | 2026-05-08 15:28 |
|---|---|
| Airport | Palm Springs International Airport (KPSP) |
| Time | Latitude | Longitude | Altitude | Speed | Heading |
|---|---|---|---|---|---|
| 2026-05-08 14:17 | 32.12026 | -110.93923 | 2577 ft | 0 kts | 55° |
| 2026-05-08 14:26 | 32.12015 | -110.93940 | 2591 ft | 3 kts | 55° |
| 2026-05-08 14:26 | 32.12001 | -110.93958 | 2592 ft | 3 kts | 22° |
| 2026-05-08 14:26 | 32.11981 | -110.93960 | 2586 ft | 3 kts | 340° |
| 2026-05-08 14:26 | 32.11969 | -110.93953 | 2584 ft | 3 kts | 313° |
| 2026-05-08 14:27 | 32.11966 | -110.93948 | 2585 ft | 0 kts | 302° |
| 2026-05-08 14:27 | 32.11962 | -110.93942 | 2585 ft | 1 kts | 303° |
| 2026-05-08 14:27 | 32.11969 | -110.93954 | 2584 ft | 3 kts | 304° |
| 2026-05-08 14:27 | 32.11995 | -110.93994 | 2588 ft | 13 kts | 307° |
| 2026-05-08 14:28 | 32.12022 | -110.94116 | 2590 ft | 16 kts | 281° |
| 2026-05-08 14:28 | 32.12071 | -110.94230 | 2586 ft | 17 kts | 312° |
| 2026-05-08 14:28 | 32.12162 | -110.94341 | 2589 ft | 20 kts | 313° |
| 2026-05-08 14:28 | 32.12263 | -110.94454 | 2584 ft | 20 kts | 316° |
| 2026-05-08 14:29 | 32.12369 | -110.94567 | 2576 ft | 22 kts | 319° |
| 2026-05-08 14:29 | 32.12373 | -110.94696 | 2578 ft | 17 kts | 230° |
| 2026-05-08 14:29 | 32.12288 | -110.94727 | 2575 ft | 4 kts | 149° |
| 2026-05-08 14:29 | 32.12267 | -110.94704 | 2577 ft | 4 kts | 136° |
| 2026-05-08 14:30 | 32.12261 | -110.94698 | 2579 ft | 0 kts | 136° |
| 2026-05-08 14:30 | 32.12090 | -110.94502 | 2589 ft | 76 kts | 136° |
| 2026-05-08 14:30 | 32.11524 | -110.93847 | 2606 ft | 149 kts | 135° |
| 2026-05-08 14:31 | 32.10682 | -110.92906 | 2983 ft | 184 kts | 139° |
| 2026-05-08 14:31 | 32.09575 | -110.91902 | 3280 ft | 212 kts | 147° |
| 2026-05-08 14:31 | 32.08501 | -110.90721 | 3973 ft | 206 kts | 130° |
| 2026-05-08 14:32 | 32.06520 | -110.88106 | 4912 ft | 238 kts | 134° |
| 2026-05-08 14:32 | 32.05319 | -110.86628 | 5189 ft | 262 kts | 135° |
| 2026-05-08 14:32 | 32.03980 | -110.85029 | 5524 ft | 283 kts | 135° |
| 2026-05-08 14:32 | 32.02556 | -110.83357 | 6233 ft | 292 kts | 136° |
| 2026-05-08 14:33 | 32.00823 | -110.82084 | 7040 ft | 298 kts | 163° |
| 2026-05-08 14:33 | 31.98778 | -110.81859 | 7905 ft | 299 kts | 191° |
| 2026-05-08 14:33 | 31.96861 | -110.82741 | 8730 ft | 298 kts | 216° |
| 2026-05-08 14:33 | 31.95169 | -110.84184 | 9581 ft | 302 kts | 220° |
| 2026-05-08 14:34 | 31.93600 | -110.85851 | 10308 ft | 308 kts | 236° |
| 2026-05-08 14:34 | 31.92685 | -110.88182 | 10544 ft | 325 kts | 262° |
| 2026-05-08 14:34 | 31.92488 | -110.90880 | 10758 ft | 346 kts | 271° |
| 2026-05-08 14:34 | 31.92591 | -110.93744 | 11215 ft | 355 kts | 286° |
| 2026-05-08 14:35 | 31.93521 | -110.96408 | 11809 ft | 351 kts | 305° |
| 2026-05-08 14:35 | 31.94932 | -110.98782 | 12105 ft | 358 kts | 309° |
| 2026-05-08 14:35 | 31.96434 | -111.01145 | 12829 ft | 362 kts | 310° |
| 2026-05-08 14:35 | 31.97949 | -111.03524 | 13675 ft | 365 kts | 310° |
| 2026-05-08 14:36 | 31.99469 | -111.05938 | 14422 ft | 369 kts | 309° |
| 2026-05-08 14:36 | 32.00989 | -111.08386 | 15229 ft | 370 kts | 309° |
| 2026-05-08 14:36 | 32.02506 | -111.10851 | 16083 ft | 373 kts | 309° |
| 2026-05-08 14:36 | 32.04034 | -111.13344 | 16883 ft | 376 kts | 309° |
| 2026-05-08 14:37 | 32.05572 | -111.15854 | 17669 ft | 380 kts | 309° |
| 2026-05-08 14:37 | 32.07126 | -111.18391 | 18424 ft | 383 kts | 309° |
| 2026-05-08 14:37 | 32.08735 | -111.20908 | 19072 ft | 386 kts | 313° |
| 2026-05-08 14:37 | 32.10505 | -111.23299 | 19726 ft | 388 kts | 315° |
| 2026-05-08 14:38 | 32.12345 | -111.25643 | 20389 ft | 391 kts | 316° |
| 2026-05-08 14:38 | 32.14213 | -111.28001 | 21027 ft | 394 kts | 316° |
| 2026-05-08 14:38 | 32.16067 | -111.30362 | 21642 ft | 398 kts | 315° |
| 2026-05-08 14:38 | 32.17940 | -111.32776 | 22252 ft | 401 kts | 315° |
| 2026-05-08 14:39 | 32.19821 | -111.35223 | 22832 ft | 404 kts | 315° |
| 2026-05-08 14:39 | 32.21720 | -111.37706 | 23398 ft | 408 kts | 315° |
| 2026-05-08 14:39 | 32.23628 | -111.40206 | 23879 ft | 411 kts | 315° |
| 2026-05-08 14:39 | 32.25549 | -111.42725 | 24348 ft | 414 kts | 315° |
| 2026-05-08 14:40 | 32.27490 | -111.45270 | 24803 ft | 417 kts | 315° |
| 2026-05-08 14:40 | 32.29362 | -111.47923 | 25254 ft | 422 kts | 310° |
| 2026-05-08 14:40 | 32.31065 | -111.50783 | 25708 ft | 426 kts | 307° |
| 2026-05-08 14:40 | 32.32668 | -111.53693 | 26134 ft | 430 kts | 306° |
| 2026-05-08 14:41 | 32.34278 | -111.56681 | 26547 ft | 433 kts | 306° |
| 2026-05-08 14:41 | 32.35907 | -111.59695 | 26945 ft | 436 kts | 306° |
| 2026-05-08 14:41 | 32.37561 | -111.62719 | 27309 ft | 439 kts | 306° |
| 2026-05-08 14:41 | 32.39241 | -111.65756 | 27746 ft | 441 kts | 306° |
| 2026-05-08 14:42 | 32.40930 | -111.68788 | 27935 ft | 442 kts | 307° |
| 2026-05-08 14:42 | 32.42622 | -111.71811 | 27936 ft | 438 kts | 307° |
| 2026-05-08 14:42 | 32.44308 | -111.74815 | 27934 ft | 438 kts | 307° |
| 2026-05-08 14:42 | 32.45997 | -111.77822 | 27936 ft | 439 kts | 307° |
| 2026-05-08 14:43 | 32.47686 | -111.80834 | 27935 ft | 439 kts | 307° |
| 2026-05-08 14:43 | 32.49382 | -111.83859 | 27929 ft | 440 kts | 306° |
| 2026-05-08 14:43 | 32.51073 | -111.86879 | 27931 ft | 440 kts | 306° |
| 2026-05-08 14:43 | 32.52760 | -111.89898 | 27930 ft | 440 kts | 307° |
| 2026-05-08 14:44 | 32.54450 | -111.92922 | 27927 ft | 440 kts | 306° |
| 2026-05-08 14:44 | 32.56118 | -111.95910 | 27932 ft | 440 kts | 306° |
| 2026-05-08 14:44 | 32.57809 | -111.98942 | 27929 ft | 440 kts | 306° |
| 2026-05-08 14:44 | 32.59495 | -112.01970 | 27926 ft | 440 kts | 306° |
| 2026-05-08 14:45 | 32.61185 | -112.05004 | 27934 ft | 439 kts | 306° |
| 2026-05-08 14:45 | 32.62872 | -112.08035 | 27925 ft | 439 kts | 306° |
| 2026-05-08 14:45 | 32.64538 | -112.11028 | 27929 ft | 439 kts | 306° |
| 2026-05-08 14:45 | 32.66221 | -112.14054 | 27929 ft | 439 kts | 306° |
| 2026-05-08 14:46 | 32.67903 | -112.17082 | 27917 ft | 440 kts | 306° |
| 2026-05-08 14:46 | 32.69586 | -112.20115 | 27918 ft | 440 kts | 306° |
| 2026-05-08 14:46 | 32.71267 | -112.23147 | 27923 ft | 439 kts | 306° |
| 2026-05-08 14:46 | 32.72947 | -112.26182 | 27925 ft | 439 kts | 306° |
| 2026-05-08 14:47 | 32.74626 | -112.29219 | 27921 ft | 440 kts | 306° |
| 2026-05-08 14:47 | 32.76307 | -112.32259 | 27924 ft | 440 kts | 306° |
| 2026-05-08 14:47 | 32.77987 | -112.35302 | 27929 ft | 440 kts | 306° |
| 2026-05-08 14:47 | 32.79667 | -112.38348 | 27925 ft | 440 kts | 306° |
| 2026-05-08 14:48 | 32.81345 | -112.41394 | 27930 ft | 441 kts | 306° |
| 2026-05-08 14:48 | 32.83026 | -112.44445 | 27935 ft | 441 kts | 306° |
| 2026-05-08 14:48 | 32.84706 | -112.47498 | 27935 ft | 441 kts | 306° |
| 2026-05-08 14:48 | 32.86367 | -112.50519 | 27942 ft | 441 kts | 306° |
| 2026-05-08 14:49 | 32.88045 | -112.53575 | 27944 ft | 441 kts | 306° |
| 2026-05-08 14:49 | 32.89725 | -112.56637 | 27944 ft | 441 kts | 306° |
| 2026-05-08 14:49 | 32.91398 | -112.59692 | 27950 ft | 441 kts | 306° |
| 2026-05-08 14:49 | 32.93078 | -112.62757 | 27954 ft | 441 kts | 306° |
| 2026-05-08 14:50 | 32.94760 | -112.65827 | 27952 ft | 441 kts | 306° |
| 2026-05-08 14:50 | 32.96507 | -112.68812 | 27946 ft | 439 kts | 311° |
| 2026-05-08 14:50 | 32.98469 | -112.71542 | 27956 ft | 438 kts | 314° |
| 2026-05-08 14:50 | 33.00540 | -112.74212 | 27947 ft | 438 kts | 315° |
| 2026-05-08 14:51 | 33.02631 | -112.76855 | 27944 ft | 438 kts | 315° |
| 2026-05-08 14:51 | 33.04719 | -112.79509 | 27938 ft | 439 kts | 315° |
| 2026-05-08 14:51 | 33.06793 | -112.82181 | 27934 ft | 439 kts | 314° |
| 2026-05-08 14:51 | 33.08851 | -112.84868 | 27930 ft | 439 kts | 314° |
| 2026-05-08 14:52 | 33.10906 | -112.87573 | 27926 ft | 439 kts | 314° |
| 2026-05-08 14:52 | 33.14997 | -112.92996 | 27920 ft | 439 kts | 314° |
| 2026-05-08 14:52 | 33.17042 | -112.95713 | 27917 ft | 440 kts | 314° |
| 2026-05-08 14:53 | 33.19060 | -112.98396 | 27911 ft | 440 kts | 314° |
| 2026-05-08 14:53 | 33.21102 | -113.01113 | 27912 ft | 440 kts | 314° |
| 2026-05-08 14:53 | 33.23175 | -113.03871 | 27916 ft | 440 kts | 314° |
| 2026-05-08 14:53 | 33.25215 | -113.06587 | 27907 ft | 440 kts | 314° |
| 2026-05-08 14:54 | 33.27254 | -113.09306 | 27909 ft | 440 kts | 314° |
| 2026-05-08 14:54 | 33.29269 | -113.11993 | 27911 ft | 440 kts | 314° |
| 2026-05-08 14:54 | 33.31316 | -113.14727 | 27910 ft | 439 kts | 314° |
| 2026-05-08 14:54 | 33.33358 | -113.17455 | 27914 ft | 439 kts | 314° |
| 2026-05-08 14:55 | 33.35392 | -113.20175 | 27914 ft | 439 kts | 314° |
| 2026-05-08 14:55 | 33.37431 | -113.22906 | 27911 ft | 439 kts | 314° |
| 2026-05-08 14:55 | 33.39466 | -113.25634 | 27922 ft | 439 kts | 314° |
| 2026-05-08 14:55 | 33.41507 | -113.28369 | 27935 ft | 439 kts | 314° |
| 2026-05-08 14:56 | 33.43526 | -113.31075 | 27950 ft | 439 kts | 314° |
| 2026-05-08 14:56 | 33.45405 | -113.33965 | 27948 ft | 442 kts | 305° |
| 2026-05-08 14:56 | 33.46918 | -113.37176 | 27975 ft | 444 kts | 297° |
| 2026-05-08 14:57 | 33.48944 | -113.44182 | 27991 ft | 446 kts | 289° |
| 2026-05-08 14:57 | 33.49854 | -113.47748 | 28000 ft | 446 kts | 289° |
| 2026-05-08 14:57 | 33.50759 | -113.51311 | 28010 ft | 446 kts | 289° |
| 2026-05-08 14:58 | 33.52587 | -113.58423 | 28014 ft | 446 kts | 289° |
| 2026-05-08 14:58 | 33.54440 | -113.65531 | 28013 ft | 446 kts | 290° |
| 2026-05-08 14:59 | 33.56284 | -113.72586 | 28001 ft | 446 kts | 290° |
| 2026-05-08 14:59 | 33.58138 | -113.79690 | 27987 ft | 447 kts | 290° |
| 2026-05-08 14:59 | 33.59066 | -113.83254 | 27966 ft | 447 kts | 290° |
| 2026-05-08 15:00 | 33.59989 | -113.86809 | 27963 ft | 447 kts | 290° |
| 2026-05-08 15:00 | 33.60916 | -113.90378 | 27953 ft | 447 kts | 290° |
| 2026-05-08 15:00 | 33.61839 | -113.93941 | 27935 ft | 447 kts | 289° |
| 2026-05-08 15:00 | 33.62761 | -113.97502 | 27922 ft | 447 kts | 289° |
| 2026-05-08 15:01 | 33.63681 | -114.01066 | 27913 ft | 447 kts | 289° |
| 2026-05-08 15:01 | 33.64603 | -114.04636 | 27916 ft | 447 kts | 289° |
| 2026-05-08 15:01 | 33.65508 | -114.08152 | 27909 ft | 447 kts | 289° |
| 2026-05-08 15:01 | 33.66430 | -114.11735 | 27906 ft | 447 kts | 289° |
| 2026-05-08 15:02 | 33.67349 | -114.15310 | 27893 ft | 447 kts | 289° |
| 2026-05-08 15:02 | 33.68264 | -114.18873 | 27898 ft | 447 kts | 289° |
| 2026-05-08 15:02 | 33.69182 | -114.22456 | 27896 ft | 447 kts | 289° |
| 2026-05-08 15:02 | 33.70095 | -114.26022 | 27889 ft | 447 kts | 289° |
| 2026-05-08 15:03 | 33.70994 | -114.29541 | 27899 ft | 446 kts | 289° |
| 2026-05-08 15:03 | 33.71905 | -114.33110 | 27899 ft | 446 kts | 289° |
| 2026-05-08 15:03 | 33.72818 | -114.36689 | 27894 ft | 446 kts | 289° |
| 2026-05-08 15:03 | 33.73726 | -114.40258 | 27905 ft | 446 kts | 289° |
| 2026-05-08 15:04 | 33.74633 | -114.43833 | 27904 ft | 446 kts | 289° |
| 2026-05-08 15:04 | 33.75540 | -114.47408 | 27912 ft | 446 kts | 289° |
| 2026-05-08 15:04 | 33.76445 | -114.50974 | 27914 ft | 446 kts | 289° |
| 2026-05-08 15:04 | 33.77357 | -114.54544 | 27732 ft | 448 kts | 290° |
| 2026-05-08 15:05 | 33.78389 | -114.58079 | 27200 ft | 445 kts | 293° |
| 2026-05-08 15:05 | 33.79501 | -114.61508 | 26584 ft | 438 kts | 294° |
| 2026-05-08 15:05 | 33.80636 | -114.64887 | 25968 ft | 432 kts | 295° |
| 2026-05-08 15:05 | 33.81759 | -114.68228 | 25360 ft | 428 kts | 295° |
| 2026-05-08 15:06 | 33.82842 | -114.71488 | 24763 ft | 424 kts | 294° |
| 2026-05-08 15:06 | 33.83918 | -114.74771 | 24142 ft | 420 kts | 294° |
| 2026-05-08 15:06 | 33.84976 | -114.78030 | 23523 ft | 417 kts | 294° |
| 2026-05-08 15:06 | 33.86025 | -114.81277 | 22823 ft | 413 kts | 294° |
| 2026-05-08 15:07 | 33.87060 | -114.84493 | 22179 ft | 409 kts | 294° |
| 2026-05-08 15:07 | 33.88081 | -114.87671 | 21568 ft | 404 kts | 294° |
| 2026-05-08 15:07 | 33.89089 | -114.90814 | 20963 ft | 400 kts | 294° |
| 2026-05-08 15:07 | 33.90084 | -114.93920 | 20367 ft | 395 kts | 294° |
| 2026-05-08 15:08 | 33.91068 | -114.96993 | 19805 ft | 391 kts | 294° |
| 2026-05-08 15:08 | 33.91714 | -114.99015 | 19431 ft | 389 kts | 294° |
| 2026-05-08 15:08 | 33.93008 | -115.03061 | 18676 ft | 385 kts | 294° |
| 2026-05-08 15:08 | 33.93959 | -115.06031 | 18078 ft | 383 kts | 294° |
| 2026-05-08 15:09 | 33.94877 | -115.09027 | 17435 ft | 381 kts | 288° |
| 2026-05-08 15:09 | 33.95362 | -115.12157 | 16942 ft | 378 kts | 277° |
| 2026-05-08 15:09 | 33.95392 | -115.15311 | 16522 ft | 376 kts | 267° |
| 2026-05-08 15:09 | 33.94988 | -115.18420 | 16103 ft | 375 kts | 261° |
| 2026-05-08 15:10 | 33.94478 | -115.21516 | 15674 ft | 378 kts | 260° |
| 2026-05-08 15:10 | 33.93948 | -115.24627 | 15247 ft | 379 kts | 260° |
| 2026-05-08 15:10 | 33.93426 | -115.27693 | 14820 ft | 376 kts | 260° |
| 2026-05-08 15:10 | 33.92908 | -115.30775 | 14393 ft | 373 kts | 260° |
| 2026-05-08 15:11 | 33.92402 | -115.33827 | 13968 ft | 370 kts | 260° |
| 2026-05-08 15:11 | 33.91903 | -115.36855 | 13526 ft | 368 kts | 260° |
| 2026-05-08 15:11 | 33.91408 | -115.39878 | 13063 ft | 366 kts | 260° |
| 2026-05-08 15:11 | 33.90917 | -115.42873 | 12634 ft | 363 kts | 260° |
| 2026-05-08 15:12 | 33.90429 | -115.45849 | 12214 ft | 361 kts | 260° |
| 2026-05-08 15:12 | 33.89941 | -115.48812 | 11801 ft | 358 kts | 259° |
| 2026-05-08 15:12 | 33.89465 | -115.51693 | 11397 ft | 352 kts | 259° |
| 2026-05-08 15:12 | 33.88993 | -115.54557 | 11005 ft | 346 kts | 259° |
| 2026-05-08 15:13 | 33.88528 | -115.57377 | 10613 ft | 341 kts | 259° |
| 2026-05-08 15:13 | 33.88070 | -115.60162 | 10225 ft | 336 kts | 259° |
| 2026-05-08 15:13 | 33.87741 | -115.62913 | 10028 ft | 326 kts | 267° |
| 2026-05-08 15:13 | 33.87699 | -115.64686 | 10032 ft | 314 kts | 270° |
| 2026-05-08 15:14 | 33.87725 | -115.67255 | 10011 ft | 299 kts | 272° |
| 2026-05-08 15:14 | 33.87771 | -115.69704 | 9891 ft | 289 kts | 272° |
| 2026-05-08 15:14 | 33.87806 | -115.72121 | 9624 ft | 286 kts | 271° |
| 2026-05-08 15:14 | 33.87829 | -115.74488 | 9477 ft | 279 kts | 271° |
| 2026-05-08 15:15 | 33.87841 | -115.76812 | 9374 ft | 277 kts | 270° |
| 2026-05-08 15:15 | 33.87848 | -115.79128 | 9271 ft | 277 kts | 270° |
| 2026-05-08 15:15 | 33.87850 | -115.81455 | 9185 ft | 280 kts | 270° |
| 2026-05-08 15:15 | 33.87849 | -115.83821 | 9099 ft | 282 kts | 270° |
| 2026-05-08 15:16 | 33.87847 | -115.86183 | 8995 ft | 282 kts | 270° |
| 2026-05-08 15:16 | 33.87845 | -115.88532 | 8888 ft | 280 kts | 270° |
| 2026-05-08 15:16 | 33.87842 | -115.90876 | 8793 ft | 279 kts | 270° |
| 2026-05-08 15:16 | 33.87839 | -115.93187 | 8701 ft | 278 kts | 270° |
| 2026-05-08 15:17 | 33.87766 | -115.95508 | 8585 ft | 278 kts | 258° |
| 2026-05-08 15:17 | 33.87035 | -115.97642 | 8510 ft | 276 kts | 239° |
| 2026-05-08 15:17 | 33.86027 | -115.99604 | 8423 ft | 275 kts | 238° |
| 2026-05-08 15:17 | 33.85004 | -116.01549 | 8313 ft | 275 kts | 238° |
| 2026-05-08 15:18 | 33.83986 | -116.03503 | 8211 ft | 275 kts | 238° |
| 2026-05-08 15:18 | 33.82979 | -116.05454 | 8121 ft | 275 kts | 238° |
| 2026-05-08 15:18 | 33.81978 | -116.07398 | 8016 ft | 269 kts | 238° |
| 2026-05-08 15:18 | 33.80997 | -116.09306 | 7728 ft | 268 kts | 238° |
| 2026-05-08 15:19 | 33.80032 | -116.11185 | 7446 ft | 267 kts | 238° |
| 2026-05-08 15:19 | 33.79056 | -116.13084 | 7143 ft | 267 kts | 238° |
| 2026-05-08 15:19 | 33.78082 | -116.14981 | 6841 ft | 267 kts | 238° |
| 2026-05-08 15:19 | 33.77114 | -116.16864 | 6510 ft | 261 kts | 238° |
| 2026-05-08 15:20 | 33.76175 | -116.18693 | 6246 ft | 250 kts | 239° |
| 2026-05-08 15:20 | 33.75311 | -116.20371 | 6099 ft | 222 kts | 239° |
| 2026-05-08 15:20 | 33.74542 | -116.21860 | 5942 ft | 197 kts | 239° |
| 2026-05-08 15:20 | 33.73859 | -116.23187 | 5783 ft | 175 kts | 239° |
| 2026-05-08 15:21 | 33.73266 | -116.24340 | 5671 ft | 149 kts | 240° |
| 2026-05-08 15:21 | 33.72722 | -116.25405 | 5260 ft | 147 kts | 240° |
| 2026-05-08 15:21 | 33.72210 | -116.26432 | 4966 ft | 143 kts | 243° |
| 2026-05-08 15:21 | 33.71779 | -116.27521 | 4778 ft | 145 kts | 250° |
| 2026-05-08 15:22 | 33.71442 | -116.28684 | 4595 ft | 149 kts | 256° |
| 2026-05-08 15:22 | 33.71213 | -116.29882 | 4397 ft | 146 kts | 262° |
| 2026-05-08 15:22 | 33.71099 | -116.31094 | 4223 ft | 146 kts | 269° |
| 2026-05-08 15:22 | 33.71098 | -116.32312 | 4044 ft | 145 kts | 274° |
| 2026-05-08 15:23 | 33.71204 | -116.33506 | 3888 ft | 145 kts | 280° |
| 2026-05-08 15:23 | 33.71424 | -116.34696 | 3737 ft | 146 kts | 287° |
| 2026-05-08 15:23 | 33.71738 | -116.35860 | 3566 ft | 147 kts | 290° |
| 2026-05-08 15:23 | 33.72140 | -116.36998 | 3370 ft | 148 kts | 294° |
| 2026-05-08 15:24 | 33.72561 | -116.38123 | 3183 ft | 147 kts | 294° |
| 2026-05-08 15:24 | 33.72975 | -116.39233 | 2995 ft | 143 kts | 295° |
| 2026-05-08 15:24 | 33.73381 | -116.40320 | 2822 ft | 143 kts | 295° |
| 2026-05-08 15:24 | 33.73790 | -116.41422 | 2658 ft | 146 kts | 294° |
| 2026-05-08 15:25 | 33.74270 | -116.42492 | 2471 ft | 146 kts | 307° |
| 2026-05-08 15:25 | 33.75033 | -116.43287 | 2259 ft | 145 kts | 324° |
| 2026-05-08 15:25 | 33.75837 | -116.44026 | 2063 ft | 146 kts | 322° |
| 2026-05-08 15:25 | 33.76633 | -116.44781 | 1844 ft | 146 kts | 322° |
| 2026-05-08 15:26 | 33.77425 | -116.45533 | 1639 ft | 145 kts | 322° |
| 2026-05-08 15:26 | 33.78211 | -116.46281 | 1440 ft | 144 kts | 322° |
| 2026-05-08 15:26 | 33.78989 | -116.47022 | 1257 ft | 144 kts | 322° |
| 2026-05-08 15:26 | 33.79776 | -116.47772 | 1069 ft | 144 kts | 322° |
| 2026-05-08 15:27 | 33.80563 | -116.48522 | 891 ft | 145 kts | 322° |
| 2026-05-08 15:27 | 33.81355 | -116.49276 | 707 ft | 146 kts | 322° |
| 2026-05-08 15:27 | 33.82152 | -116.50040 | 512 ft | 147 kts | 323° |
| 2026-05-08 15:27 | 33.82964 | -116.50794 | 442 ft | 144 kts | 324° |
| 2026-05-08 15:28 | 33.83447 | -116.51173 | 456 ft | 43 kts | 324° |
| 2026-05-08 15:28 | 33.83627 | -116.51355 | 466 ft | 8 kts | 320° |
| 2026-05-08 15:28 | 33.83653 | -116.51395 | 468 ft | 12 kts | 304° |
| 2026-05-08 15:28 | 33.83633 | -116.51475 | 470 ft | 11 kts | 214° |
| 2026-05-08 15:29 | 33.83539 | -116.51480 | 467 ft | 20 kts | 161° |
| 2026-05-08 15:29 | 33.83393 | -116.51359 | 461 ft | 28 kts | 143° |
| 2026-05-08 15:29 | 33.83225 | -116.51210 | 451 ft | 31 kts | 143° |
| 2026-05-08 15:29 | 33.83050 | -116.51057 | 436 ft | 31 kts | 147° |
| 2026-05-08 15:30 | 33.82878 | -116.50905 | 434 ft | 30 kts | 141° |
| 2026-05-08 15:30 | 33.82710 | -116.50747 | 436 ft | 31 kts | 143° |
| 2026-05-08 15:30 | 33.82534 | -116.50591 | 421 ft | 32 kts | 137° |
| 2026-05-08 15:30 | 33.82423 | -116.50485 | 422 ft | 18 kts | 146° |
| 2026-05-08 15:31 | 33.82330 | -116.50414 | 421 ft | 12 kts | 166° |
| 2026-05-08 15:31 | 33.82280 | -116.50439 | 410 ft | 7 kts | 233° |
| 2026-05-08 15:31 | 33.82277 | -116.50488 | 420 ft | 6 kts | 292° |
| 2026-05-08 15:31 | 33.82304 | -116.50526 | 418 ft | 6 kts | 303° |
| 2026-05-08 15:32 | 33.82311 | -116.50571 | 423 ft | 0 kts | 275° |